createdAt,value
2018-11-29T00:00:46.964Z,0.40
2018-11-29T00:05:50.895Z,0.30
2018-11-29T00:10:54.257Z,0.30
2018-11-29T00:15:57.349Z,0.30
2018-11-29T00:21:00.395Z,0.40
2018-11-29T00:26:04.290Z,0.40
2018-11-29T00:31:07.368Z,0.30
2018-11-29T00:36:10.847Z,0.40
2018-11-29T00:41:13.936Z,0.30
2018-11-29T00:46:17.655Z,0.40
2018-11-29T00:51:20.725Z,0.40
2018-11-29T00:56:23.800Z,0.40
2018-11-29T01:01:27.145Z,0.40
2018-11-29T01:06:30.599Z,0.30
2018-11-29T01:11:33.704Z,0.40
2018-11-29T01:16:36.921Z,0.40
2018-11-29T01:21:39.956Z,0.30
2018-11-29T01:26:43.055Z,0.40
2018-11-29T01:31:46.067Z,0.40
2018-11-29T01:36:49.123Z,0.50
2018-11-29T01:41:58.881Z,0.50
2018-11-29T01:47:01.892Z,0.40
2018-11-29T01:52:05.009Z,0.40
2018-11-29T01:57:08.025Z,0.40
2018-11-29T02:02:11.208Z,0.50
2018-11-29T02:07:14.245Z,0.40
2018-11-29T02:12:17.353Z,0.50
2018-11-29T02:17:20.398Z,0.40
2018-11-29T02:22:23.414Z,0.40
2018-11-29T02:27:26.521Z,0.30
2018-11-29T02:32:29.544Z,0.30
2018-11-29T02:37:32.621Z,0.20
2018-11-29T02:42:35.664Z,0.20
2018-11-29T02:47:38.802Z,0.20
2018-11-29T02:52:41.824Z,0.20
2018-11-29T02:57:44.869Z,0.20
2018-11-29T03:02:48.081Z,0.20
2018-11-29T03:07:51.173Z,0.20
2018-11-29T03:12:54.239Z,0.20
2018-11-29T03:17:57.352Z,0.20
2018-11-29T03:23:00.363Z,0.10
2018-11-29T03:28:03.400Z,0.10
2018-11-29T03:33:06.452Z,0.10
2018-11-29T03:38:09.482Z,0.10
2018-11-29T03:43:12.493Z,0.10
2018-11-29T03:48:15.535Z,0.00
2018-11-29T03:53:18.565Z,0.00
2018-11-29T03:58:21.681Z,0.00
2018-11-29T04:03:24.741Z,-0.10
2018-11-29T04:08:27.768Z,-0.10
2018-11-29T04:13:30.840Z,-0.10
2018-11-29T04:18:33.995Z,-0.20
2018-11-29T04:23:37.030Z,-0.20
2018-11-29T04:28:40.092Z,-0.30
2018-11-29T04:33:43.169Z,-0.30
2018-11-29T04:38:46.228Z,-0.30
2018-11-29T04:43:49.804Z,-0.40
2018-11-29T04:48:53.057Z,-0.40
2018-11-29T04:53:56.131Z,-0.40
2018-11-29T04:58:59.251Z,-0.50
2018-11-29T05:04:02.328Z,-0.50
2018-11-29T05:09:08.147Z,-0.60
2018-11-29T05:14:11.272Z,-0.60
2018-11-29T05:19:14.301Z,-0.60
2018-11-29T05:24:17.356Z,-0.70
2018-11-29T05:29:20.401Z,-0.70
2018-11-29T05:34:23.415Z,-0.70
2018-11-29T05:39:26.491Z,-0.70
2018-11-29T05:44:29.542Z,-0.80
2018-11-29T05:49:32.592Z,-0.80
2018-11-29T05:54:35.612Z,-0.90
2018-11-29T05:59:38.719Z,-1.00
2018-11-29T06:04:41.762Z,-0.90
2018-11-29T06:09:44.940Z,-1.00
2018-11-29T06:14:48.047Z,-1.00
2018-11-29T06:19:51.592Z,-1.00
2018-11-29T06:24:55.467Z,-1.10
2018-11-29T06:30:00.669Z,-1.10
2018-11-29T06:35:05.072Z,-1.10
2018-11-29T06:40:13.140Z,-1.10
2018-11-29T06:45:18.673Z,-1.20
2018-11-29T06:50:22.584Z,-1.20
2018-11-29T06:55:26.644Z,-1.20
2018-11-29T07:00:32.608Z,-1.20
2018-11-29T07:05:37.128Z,-1.30
2018-11-29T07:10:42.591Z,-1.20
2018-11-29T07:15:47.832Z,-1.00
2018-11-29T07:21:03.250Z,-1.00
2018-11-29T07:26:06.612Z,-0.90
2018-11-29T07:31:09.669Z,-1.00
2018-11-29T07:36:12.857Z,-0.80
2018-11-29T07:41:15.897Z,-0.30
2018-11-29T07:46:18.911Z,0.20
2018-11-29T07:51:22.019Z,0.70
2018-11-29T07:56:25.028Z,1.20
2018-11-29T08:01:28.079Z,1.40
2018-11-29T08:06:31.133Z,2.00
2018-11-29T08:11:34.299Z,1.50
2018-11-29T08:16:37.330Z,1.20
2018-11-29T08:21:40.431Z,1.20
2018-11-29T08:26:43.441Z,1.80
2018-11-29T08:31:46.500Z,3.30
2018-11-29T08:36:49.515Z,4.60
2018-11-29T08:41:52.611Z,5.00
2018-11-29T08:46:58.057Z,5.00
2018-11-29T08:52:01.870Z,5.80
2018-11-29T08:57:04.923Z,6.60
2018-11-29T09:02:08.021Z,6.60
2018-11-29T09:07:11.827Z,5.30
2018-11-29T09:12:14.869Z,4.70
2018-11-29T09:17:17.872Z,4.60
2018-11-29T09:22:20.919Z,3.40
2018-11-29T09:27:23.952Z,4.20
2018-11-29T09:32:26.947Z,6.40
2018-11-29T09:37:29.961Z,8.10
2018-11-29T09:42:32.983Z,8.30
2018-11-29T09:47:36.233Z,8.30
2018-11-29T09:52:39.828Z,8.30
2018-11-29T09:57:43.292Z,7.90
2018-11-29T10:02:51.385Z,8.50
2018-11-29T10:07:54.486Z,8.10
2018-11-29T10:12:57.493Z,8.40
2018-11-29T10:18:00.619Z,8.70
2018-11-29T10:23:03.943Z,8.80
2018-11-29T10:28:10.496Z,8.50
2018-11-29T10:33:13.503Z,7.90
2018-11-29T10:38:16.547Z,7.60
2018-11-29T10:43:19.707Z,8.10
2018-11-29T10:48:23.684Z,8.00
2018-11-29T10:53:38.210Z,8.70
2018-11-29T10:58:46.061Z,7.90
2018-11-29T11:03:49.431Z,7.10
2018-11-29T11:08:52.468Z,8.10
2018-11-29T11:13:55.516Z,8.00
2018-11-29T11:18:58.584Z,8.90
2018-11-29T11:24:01.611Z,7.50
2018-11-29T11:29:08.890Z,6.90
2018-11-29T11:34:12.065Z,7.30
2018-11-29T11:39:15.099Z,7.20
2018-11-29T11:44:18.178Z,7.60
2018-11-29T11:49:21.202Z,8.00
2018-11-29T11:54:24.233Z,8.30
2018-11-29T11:59:27.252Z,7.50
2018-11-29T12:04:30.263Z,7.00
2018-11-29T12:09:33.260Z,8.00
2018-11-29T12:14:36.293Z,8.00
2018-11-29T12:19:39.373Z,6.60
2018-11-29T12:24:42.477Z,7.00
2018-11-29T12:29:45.498Z,7.80
2018-11-29T12:34:48.597Z,7.10
2018-11-29T12:39:51.649Z,6.20
2018-11-29T12:44:54.777Z,5.80
2018-11-29T12:49:57.905Z,5.20
2018-11-29T13:00:24.304Z,5.10
2018-11-29T13:05:27.954Z,5.00
2018-11-29T13:10:31.026Z,4.80
2018-11-29T13:15:34.435Z,4.70
2018-11-29T13:20:37.593Z,5.30
2018-11-29T13:25:40.668Z,5.30
2018-11-29T13:30:43.918Z,4.10
2018-11-29T13:35:47.089Z,3.60
2018-11-29T13:40:52.555Z,3.30
2018-11-29T13:46:00.276Z,3.20
2018-11-29T13:51:09.362Z,3.10
2018-11-29T13:56:13.885Z,3.00
2018-11-29T14:01:20.432Z,2.90
2018-11-29T14:06:24.860Z,2.80
2018-11-29T14:11:28.541Z,2.70
2018-11-29T14:16:31.716Z,2.70
2018-11-29T14:21:34.760Z,2.60
2018-11-29T14:26:37.834Z,2.60
2018-11-29T14:31:40.879Z,2.40
2018-11-29T14:36:47.604Z,2.40
2018-11-29T14:41:50.624Z,2.30
2018-11-29T14:46:53.675Z,2.20
2018-11-29T14:51:56.799Z,2.10
2018-11-29T14:56:59.835Z,2.10
2018-11-29T15:02:02.911Z,2.10
2018-11-29T15:07:06.596Z,2.00
2018-11-29T15:12:09.734Z,2.00
2018-11-29T15:17:12.825Z,2.00
2018-11-29T15:22:15.892Z,2.00
2018-11-29T15:27:18.932Z,2.00
2018-11-29T15:32:21.993Z,1.90
2018-11-29T15:37:25.037Z,1.90
2018-11-29T15:42:28.114Z,1.80
2018-11-29T15:47:31.190Z,1.80
2018-11-29T15:52:34.243Z,1.80
2018-11-29T15:57:37.282Z,1.80
2018-11-29T16:02:40.371Z,1.90
2018-11-29T16:07:43.465Z,1.90
2018-11-29T16:12:46.553Z,1.80
2018-11-29T16:17:50.481Z,1.90
2018-11-29T16:22:53.511Z,1.90
2018-11-29T16:27:56.546Z,2.10
2018-11-29T16:33:02.383Z,2.00
2018-11-29T16:38:06.107Z,1.90
2018-11-29T16:43:09.554Z,1.90
2018-11-29T16:48:12.802Z,1.90
2018-11-29T16:53:15.870Z,1.80
2018-11-29T16:58:20.912Z,2.10
2018-11-29T17:03:23.995Z,1.90
2018-11-29T17:08:27.763Z,1.90
2018-11-29T17:13:30.852Z,1.80
2018-11-29T17:18:33.916Z,1.80
2018-11-29T17:23:36.943Z,1.80
2018-11-29T17:28:40.029Z,1.80
2018-11-29T17:33:43.080Z,1.80
2018-11-29T17:38:46.180Z,1.80
2018-11-29T17:43:49.223Z,1.80
2018-11-29T17:48:52.253Z,1.70
2018-11-29T17:53:55.391Z,1.70
2018-11-29T17:58:58.446Z,1.70
2018-11-29T18:04:01.518Z,1.70
2018-11-29T18:09:09.017Z,1.60
2018-11-29T18:14:12.195Z,1.60
2018-11-29T18:19:15.288Z,1.50
2018-11-29T18:24:18.393Z,1.50
2018-11-29T18:29:21.512Z,1.50
2018-11-29T18:34:24.531Z,1.50
2018-11-29T18:39:27.619Z,1.50
2018-11-29T18:44:32.712Z,1.40
2018-11-29T18:49:35.779Z,1.40
2018-11-29T18:54:38.873Z,1.40
2018-11-29T18:59:46.108Z,1.40
2018-11-29T19:04:49.153Z,1.40
2018-11-29T19:09:52.267Z,1.30
2018-11-29T19:14:55.360Z,1.30
2018-11-29T19:19:59.460Z,1.30
2018-11-29T19:25:02.508Z,1.20
2018-11-29T19:30:10.548Z,1.20
2018-11-29T19:35:13.660Z,1.10
2018-11-29T19:40:17.155Z,1.10
2018-11-29T19:45:20.217Z,1.00
2018-11-29T19:50:23.256Z,1.10
2018-11-29T19:55:27.617Z,1.00
2018-11-29T20:00:30.652Z,1.00
2018-11-29T20:05:33.691Z,1.00
2018-11-29T20:10:36.778Z,0.90
2018-11-29T20:15:41.310Z,0.90
2018-11-29T20:20:49.600Z,0.90
2018-11-29T20:25:52.651Z,0.90
2018-11-29T20:30:55.759Z,0.90
2018-11-29T20:35:58.812Z,0.80
2018-11-29T20:41:01.838Z,0.80
2018-11-29T20:46:04.872Z,0.80
2018-11-29T20:51:07.908Z,0.70
2018-11-29T20:56:12.491Z,0.70
2018-11-29T21:01:15.519Z,0.70
2018-11-29T21:06:18.549Z,0.70
2018-11-29T21:11:21.601Z,0.60
2018-11-29T21:16:24.748Z,0.60
2018-11-29T21:21:27.789Z,0.60
2018-11-29T21:26:30.872Z,0.50
2018-11-29T21:31:33.893Z,0.50
2018-11-29T21:36:43.477Z,0.50
2018-11-29T21:41:46.536Z,0.50
2018-11-29T21:46:49.657Z,0.50
2018-11-29T21:51:52.713Z,0.50
2018-11-29T21:56:55.756Z,0.40
2018-11-29T22:01:58.804Z,0.40
2018-11-29T22:07:01.878Z,0.40
2018-11-29T22:12:04.935Z,0.40
2018-11-29T22:17:07.992Z,0.40
2018-11-29T22:22:11.015Z,0.30
2018-11-29T22:27:14.103Z,0.30
2018-11-29T22:32:17.163Z,0.30
2018-11-29T22:37:20.197Z,0.30
2018-11-29T22:42:23.233Z,0.30
2018-11-29T22:47:26.315Z,0.20
2018-11-29T22:52:29.356Z,0.20
2018-11-29T22:57:32.403Z,0.20
2018-11-29T23:02:35.553Z,0.20
2018-11-29T23:07:38.590Z,0.20
2018-11-29T23:12:41.703Z,0.20
2018-11-29T23:17:44.755Z,0.10
2018-11-29T23:22:47.798Z,0.10
2018-11-29T23:27:50.894Z,0.10
2018-11-29T23:32:53.935Z,0.10
2018-11-29T23:37:56.981Z,0.10
2018-11-29T23:43:00.032Z,0.10
2018-11-29T23:48:03.080Z,0.10
2018-11-29T23:53:06.154Z,0.10
2018-11-29T23:58:09.215Z,0.00
